Time;durP1;ratioP1;P1;durP2;ratioP2;P2;SDS_P1;SDS_P2;PMS_P1;PMS_P2;Temp;Humidity;BMP_temperature;BMP_pressure;BME280_temperature;BME280_humidity;BME280_pressure;Samples;Min_cycle;Max_cycle;Signal;HPM_P1;HPM_P2
2022/04/04 00:01:25;;;;;;;11.70;2.03;;;;;;;;;;5072157;28;20039;-89
2022/04/04 00:03:52;;;;;;;14.57;2.25;;;;;;;;;;5074986;28;20028;-89
2022/04/04 00:06:21;;;;;;;13.95;2.08;;;;;;;;;;5082549;28;20032;-89
2022/04/04 00:08:47;;;;;;;13.52;2.40;;;;;;;;;;5063737;28;20031;-89
2022/04/04 00:11:17;;;;;;;9.70;1.75;;;;;;;;;;5067049;28;20040;-90
2022/04/04 00:13:44;;;;;;;14.98;2.25;;;;;;;;;;5071224;28;20040;-88
2022/04/04 00:16:17;;;;;;;13.45;2.20;;;;;;;;;;5062236;28;20061;-90
2022/04/04 00:18:44;;;;;;;18.98;3.33;;;;;;;;;;5061713;28;20043;-89
2022/04/04 00:21:10;;;;;;;7.68;2.80;;;;;;;;;;5073441;28;20036;-91
2022/04/04 00:23:42;;;;;;;12.32;2.50;;;;;;;;;;5060342;28;20044;-89
2022/04/04 00:26:10;;;;;;;16.63;3.38;;;;;;;;;;5054146;28;20102;-90
2022/04/04 00:28:37;;;;;;;17.48;3.53;;;;;;;;;;5076270;28;20029;-90
2022/04/04 00:31:04;;;;;;;15.52;2.83;;;;;;;;;;5070218;28;20541;-89
2022/04/04 00:33:40;;;;;;;14.85;3.05;;;;;;;;;;5067024;28;20035;-91
2022/04/04 00:36:07;;;;;;;13.07;2.72;;;;;;;;;;5056354;28;20032;-91
2022/04/04 00:38:57;;;;;;;11.00;2.38;;;;;;;;;;5069312;28;20032;-89
2022/04/04 00:41:28;;;;;;;12.13;3.05;;;;;;;;;;5066630;28;20469;-92
2022/04/04 00:44:03;;;;;;;11.35;2.08;;;;;;;;;;5060729;28;20070;-88
2022/04/04 00:46:32;;;;;;;12.50;2.90;;;;;;;;;;5066901;28;20040;-87
2022/04/04 00:48:58;;;;;;;10.93;2.75;;;;;;;;;;5058144;28;20040;-88
2022/04/04 00:51:40;;;;;;;14.73;2.92;;;;;;;;;;5061041;28;20036;-88
2022/04/04 00:54:07;;;;;;;16.85;2.60;;;;;;;;;;5068956;28;20093;-87
2022/04/04 00:56:42;;;;;;;15.18;3.13;;;;;;;;;;5064240;28;20120;-87
2022/04/04 00:59:13;;;;;;;15.98;2.60;;;;;;;;;;5089306;28;20680;-87
2022/04/04 01:01:49;;;;;;;16.38;3.20;;;;;;;;;;5068594;28;20388;-87
2022/04/04 01:04:16;;;;;;;21.02;3.05;;;;;;;;;;5086316;28;20586;-87
2022/04/04 01:06:47;;;;;;;14.82;2.90;;;;;;;;;;5088676;28;20032;-87
2022/04/04 01:09:14;;;;;;;8.55;2.38;;;;;;;;;;5067256;28;20099;-87
2022/04/04 01:11:59;;;;;;;14.30;3.33;;;;;;;;;;5073438;28;20036;-87
2022/04/04 01:14:26;;;;;;;12.68;3.78;;;;;;;;;;5071613;28;20402;-87
2022/04/04 01:17:00;;;;;;;15.07;3.72;;;;;;;;;;5086346;28;20031;-86
2022/04/04 01:19:27;;;;;;;13.13;3.45;;;;;;;;;;5071136;28;20036;-88
2022/04/04 01:21:54;;;;;;;11.15;2.88;;;;;;;;;;5067287;28;20467;-87
2022/04/04 01:24:23;;;;;;;9.35;2.67;;;;;;;;;;5060360;28;20042;-87
2022/04/04 01:26:50;;;;;;;12.80;3.03;;;;;;;;;;5066216;28;20078;-85
2022/04/04 01:29:25;;;;;;;12.48;3.20;;;;;;;;;;5082818;28;20090;-86
2022/04/04 01:31:52;;;;;;;10.20;3.15;;;;;;;;;;5069543;28;20028;-86
2022/04/04 01:34:22;;;;;;;14.43;3.15;;;;;;;;;;5086283;28;20041;-86
2022/04/04 01:36:49;;;;;;;18.35;2.80;;;;;;;;;;5058046;28;20028;-86
2022/04/04 01:39:16;;;;;;;11.85;2.80;;;;;;;;;;5072246;28;20063;-85
2022/04/04 01:41:43;;;;;;;14.95;3.05;;;;;;;;;;5074067;28;20052;-87
2022/04/04 01:49:03;;;;;;;16.92;3.30;;;;;;;;;;5107601;28;20040;-87
2022/04/04 01:51:30;;;;;;;16.00;3.50;;;;;;;;;;5094331;28;20398;-87
2022/04/04 01:54:02;;;;;;;12.90;2.83;;;;;;;;;;5088303;28;20032;-87
2022/04/04 01:56:41;;;;;;;12.30;2.75;;;;;;;;;;5087498;28;20028;-87
2022/04/04 01:59:08;;;;;;;14.15;3.33;;;;;;;;;;5091731;28;20383;-87
2022/04/04 02:01:37;;;;;;;14.68;3.42;;;;;;;;;;5089255;28;20119;-87
2022/04/04 02:04:03;;;;;;;11.02;2.90;;;;;;;;;;5108457;28;20031;-87
2022/04/04 02:06:33;;;;;;;17.48;3.75;;;;;;;;;;5096934;28;20039;-87
2022/04/04 02:08:59;;;;;;;15.93;3.80;;;;;;;;;;5111316;28;20073;-87
2022/04/04 02:11:26;;;;;;;9.52;3.72;;;;;;;;;;5093072;28;20039;-86
2022/04/04 02:13:52;;;;;;;15.35;4.38;;;;;;;;;;5086605;28;20076;-88
2022/04/04 02:16:19;;;;;;;16.80;4.13;;;;;;;;;;5097301;28;20031;-87
2022/04/04 02:18:45;;;;;;;24.95;4.80;;;;;;;;;;5088768;28;20123;-87
2022/04/04 02:21:11;;;;;;;17.58;4.95;;;;;;;;;;5089479;28;20102;-87
2022/04/04 02:23:38;;;;;;;22.60;5.55;;;;;;;;;;5082828;28;20482;-87
2022/04/04 02:26:04;;;;;;;19.65;5.05;;;;;;;;;;5088951;28;20071;-87
2022/04/04 02:28:31;;;;;;;21.42;4.85;;;;;;;;;;5109659;28;20040;-87
2022/04/04 02:30:57;;;;;;;15.23;4.53;;;;;;;;;;5079068;28;20049;-87
2022/04/04 02:33:24;;;;;;;14.70;4.22;;;;;;;;;;5089380;28;20032;-87
2022/04/04 02:35:52;;;;;;;17.17;5.25;;;;;;;;;;5099182;28;20050;-87
2022/04/04 02:38:19;;;;;;;14.07;4.15;;;;;;;;;;5097178;27;20028;-87
2022/04/04 02:40:46;;;;;;;15.32;4.22;;;;;;;;;;5126572;27;20035;-87
2022/04/04 02:43:12;;;;;;;18.67;4.15;;;;;;;;;;5132194;27;20370;-86
2022/04/04 02:45:39;;;;;;;16.73;3.95;;;;;;;;;;5132240;27;20031;-86
2022/04/04 02:48:15;;;;;;;14.18;4.03;;;;;;;;;;5109328;28;20044;-86
2022/04/04 02:50:42;;;;;;;15.60;3.83;;;;;;;;;;5117810;27;20493;-87
2022/04/04 02:53:10;;;;;;;24.83;5.95;;;;;;;;;;5115602;27;20126;-87
2022/04/04 02:58:21;;;;;;;21.40;5.13;;;;;;;;;;5124261;27;20034;-87
2022/04/04 03:00:50;;;;;;;21.38;5.28;;;;;;;;;;5115055;27;20129;-86
2022/04/04 03:03:17;;;;;;;17.55;4.78;;;;;;;;;;5111123;28;20027;-87
2022/04/04 03:05:48;;;;;;;24.90;4.50;;;;;;;;;;5126483;27;20470;-87
2022/04/04 03:08:14;;;;;;;17.63;5.10;;;;;;;;;;5114485;28;20032;-88
2022/04/04 03:10:41;;;;;;;23.50;5.15;;;;;;;;;;5107154;27;20031;-88
2022/04/04 03:13:07;;;;;;;31.92;5.63;;;;;;;;;;5134888;27;20028;-87
2022/04/04 03:15:41;;;;;;;17.20;4.18;;;;;;;;;;5118682;27;20385;-88
2022/04/04 03:18:07;;;;;;;20.27;4.60;;;;;;;;;;5115565;28;20032;-88
2022/04/04 03:20:44;;;;;;;19.17;4.55;;;;;;;;;;5113977;27;20031;-87
2022/04/04 03:23:10;;;;;;;25.83;4.90;;;;;;;;;;5110366;27;20524;-86
2022/04/04 03:25:38;;;;;;;24.80;3.83;;;;;;;;;;5114009;27;20091;-87
2022/04/04 03:28:04;;;;;;;15.90;4.10;;;;;;;;;;5099784;28;20042;-87
2022/04/04 03:30:35;;;;;;;23.08;3.80;;;;;;;;;;5097000;28;20131;-88
2022/04/04 03:33:03;;;;;;;21.67;5.47;;;;;;;;;;5112261;28;20745;-87
2022/04/04 03:35:35;;;;;;;30.90;7.82;;;;;;;;;;5111209;27;20075;-87
2022/04/04 03:38:02;;;;;;;26.63;7.28;;;;;;;;;;5110685;27;20034;-88
2022/04/04 03:40:29;;;;;;;38.78;8.13;;;;;;;;;;5107944;27;20034;-89
2022/04/04 03:42:56;;;;;;;37.65;9.90;;;;;;;;;;5110379;27;20038;-87
2022/04/04 03:45:35;;;;;;;30.67;9.75;;;;;;;;;;5135321;27;20035;-87
2022/04/04 03:48:08;;;;;;;35.17;9.68;;;;;;;;;;5111485;27;20046;-87
2022/04/04 03:50:35;;;;;;;40.33;11.95;;;;;;;;;;5106888;28;20039;-86
2022/04/04 03:53:01;;;;;;;28.92;9.00;;;;;;;;;;5109431;27;20054;-88
2022/04/04 03:55:33;;;;;;;22.00;7.85;;;;;;;;;;5107868;28;20032;-86
2022/04/04 03:58:02;;;;;;;30.92;8.70;;;;;;;;;;5111256;27;20032;-87
2022/04/04 04:00:29;;;;;;;30.27;8.57;;;;;;;;;;5131010;27;20071;-86
2022/04/04 04:02:56;;;;;;;30.90;10.48;;;;;;;;;;5108942;27;20046;-86
2022/04/04 04:05:23;;;;;;;28.33;9.10;;;;;;;;;;5108702;27;20039;-85
2022/04/04 04:07:49;;;;;;;32.75;9.43;;;;;;;;;;5102995;27;20104;-86
2022/04/04 04:10:18;;;;;;;27.20;9.02;;;;;;;;;;5130172;27;20044;-86
2022/04/04 04:12:45;;;;;;;28.60;8.15;;;;;;;;;;5116070;27;20035;-85
2022/04/04 04:15:17;;;;;;;20.58;7.97;;;;;;;;;;5131526;27;20042;-87
2022/04/04 04:17:46;;;;;;;29.00;8.80;;;;;;;;;;5112195;27;20050;-86
2022/04/04 04:20:31;;;;;;;40.17;8.30;;;;;;;;;;5103383;27;20038;-86
2022/04/04 04:23:06;;;;;;;29.27;8.43;;;;;;;;;;5109315;28;20031;-85
2022/04/04 04:25:33;;;;;;;26.17;7.75;;;;;;;;;;5105407;27;20034;-85
2022/04/04 04:28:01;;;;;;;23.45;6.95;;;;;;;;;;5105078;27;20111;-86
2022/04/04 04:30:29;;;;;;;31.10;6.88;;;;;;;;;;5104511;27;20035;-86
2022/04/04 04:32:55;;;;;;;22.35;7.18;;;;;;;;;;5109627;27;20054;-85
2022/04/04 04:35:23;;;;;;;31.08;7.05;;;;;;;;;;5108244;27;20117;-86
2022/04/04 04:37:50;;;;;;;33.97;8.25;;;;;;;;;;5098048;27;20495;-85
2022/04/04 04:40:19;;;;;;;32.58;7.93;;;;;;;;;;5113871;27;20507;-86
2022/04/04 04:42:46;;;;;;;29.15;6.88;;;;;;;;;;5100184;27;20678;-85
2022/04/04 04:45:13;;;;;;;23.95;8.00;;;;;;;;;;5112245;27;20040;-86
2022/04/04 04:47:42;;;;;;;20.90;7.82;;;;;;;;;;5109489;27;20051;-85
2022/04/04 04:50:09;;;;;;;30.73;9.25;;;;;;;;;;5088318;28;20042;-86
2022/04/04 04:52:37;;;;;;;31.20;12.52;;;;;;;;;;5106096;27;20684;-85
2022/04/04 04:55:04;;;;;;;33.60;13.35;;;;;;;;;;5109531;28;20110;-86
2022/04/04 04:57:32;;;;;;;24.65;9.68;;;;;;;;;;5105576;28;20024;-85
2022/04/04 04:59:58;;;;;;;29.52;8.35;;;;;;;;;;5101218;28;20381;-85
2022/04/04 05:02:25;;;;;;;28.80;10.48;;;;;;;;;;5105535;28;20027;-86
2022/04/04 05:04:59;;;;;;;59.45;25.42;;;;;;;;;;5111566;28;20035;-85
2022/04/04 05:07:25;;;;;;;42.35;15.40;;;;;;;;;;5115887;28;20035;-85
2022/04/04 05:09:55;;;;;;;30.10;11.75;;;;;;;;;;5120539;28;20045;-85
2022/04/04 05:12:21;;;;;;;35.90;10.43;;;;;;;;;;5111342;28;20043;-85
2022/04/04 05:14:50;;;;;;;35.90;12.75;;;;;;;;;;5113874;28;20478;-86
2022/04/04 05:17:17;;;;;;;38.80;14.93;;;;;;;;;;5111797;28;20031;-85
2022/04/04 05:19:49;;;;;;;40.40;12.50;;;;;;;;;;5113213;28;20063;-86
2022/04/04 05:22:16;;;;;;;35.78;12.77;;;;;;;;;;5110416;28;20035;-86
2022/04/04 05:24:42;;;;;;;29.23;11.15;;;;;;;;;;5122433;28;20032;-86
2022/04/04 05:27:11;;;;;;;53.42;12.40;;;;;;;;;;5117804;28;20051;-86
2022/04/04 05:29:38;;;;;;;32.38;12.80;;;;;;;;;;5115241;28;20035;-85
2022/04/04 05:32:04;;;;;;;36.95;12.73;;;;;;;;;;5115376;28;20039;-86
2022/04/04 05:34:31;;;;;;;36.92;12.00;;;;;;;;;;5115170;28;20038;-86
2022/04/04 05:36:57;;;;;;;32.70;11.55;;;;;;;;;;5136885;27;20100;-87
2022/04/04 05:39:23;;;;;;;32.72;10.63;;;;;;;;;;5119199;27;20031;-87
2022/04/04 05:41:52;;;;;;;29.83;10.00;;;;;;;;;;5119640;27;20059;-86
2022/04/04 05:44:18;;;;;;;36.20;10.65;;;;;;;;;;5118844;27;20036;-86
2022/04/04 05:46:51;;;;;;;31.40;9.15;;;;;;;;;;5108971;28;20070;-86
2022/04/04 05:49:18;;;;;;;35.25;9.25;;;;;;;;;;5123373;27;20554;-86
2022/04/04 05:51:45;;;;;;;32.65;8.32;;;;;;;;;;5111529;28;20048;-85
2022/04/04 05:54:13;;;;;;;33.20;10.45;;;;;;;;;;5098513;28;20130;-86
2022/04/04 05:56:40;;;;;;;32.72;11.13;;;;;;;;;;5109441;28;20031;-86
2022/04/04 05:59:07;;;;;;;43.03;11.00;;;;;;;;;;5098019;28;20497;-87
2022/04/04 06:01:33;;;;;;;41.90;11.93;;;;;;;;;;5116392;27;20038;-88
2022/04/04 06:04:02;;;;;;;37.00;11.50;;;;;;;;;;5108482;28;20059;-87
2022/04/04 06:06:29;;;;;;;43.55;13.18;;;;;;;;;;5099538;27;20071;-88
2022/04/04 06:08:55;;;;;;;39.97;12.60;;;;;;;;;;5112171;28;20510;-87
2022/04/04 06:11:22;;;;;;;43.45;12.95;;;;;;;;;;5112298;27;20429;-87
2022/04/04 06:13:49;;;;;;;38.85;12.80;;;;;;;;;;5113116;28;20498;-87
2022/04/04 06:16:15;;;;;;;44.63;13.05;;;;;;;;;;5110418;27;20135;-88
2022/04/04 06:18:43;;;;;;;45.85;13.82;;;;;;;;;;5122360;27;20027;-87
2022/04/04 06:21:09;;;;;;;49.05;14.30;;;;;;;;;;5109215;28;20024;-88
2022/04/04 06:23:36;;;;;;;46.92;14.63;;;;;;;;;;5132546;27;20031;-86
2022/04/04 06:26:12;;;;;;;48.08;12.85;;;;;;;;;;5137378;27;20074;-86
2022/04/04 06:28:38;;;;;;;47.72;14.55;;;;;;;;;;5116437;27;20028;-87
2022/04/04 06:31:07;;;;;;;38.60;13.25;;;;;;;;;;5111502;28;20040;-88
2022/04/04 06:33:33;;;;;;;37.95;12.38;;;;;;;;;;5112036;27;20039;-87
2022/04/04 06:35:59;;;;;;;44.95;11.73;;;;;;;;;;5118081;27;20038;-88
2022/04/04 06:38:29;;;;;;;35.60;11.63;;;;;;;;;;5107020;28;20029;-86
2022/04/04 06:40:56;;;;;;;40.38;12.48;;;;;;;;;;5116358;27;20114;-86
2022/04/04 06:43:23;;;;;;;36.17;11.32;;;;;;;;;;5118735;27;20110;-87
2022/04/04 06:45:49;;;;;;;32.85;10.40;;;;;;;;;;5117290;27;20420;-87
2022/04/04 06:48:15;;;;;;;31.70;9.23;;;;;;;;;;5114046;28;20603;-87
2022/04/04 06:50:42;;;;;;;39.55;11.57;;;;;;;;;;5114903;28;20057;-88
2022/04/04 06:53:08;;;;;;;38.67;10.27;;;;;;;;;;5114759;28;20028;-88
2022/04/04 06:55:37;;;;;;;41.47;12.10;;;;;;;;;;5103587;28;20478;-88
2022/04/04 06:58:03;;;;;;;36.83;11.32;;;;;;;;;;5095128;28;20069;-88
2022/04/04 07:00:30;;;;;;;44.78;9.70;;;;;;;;;;5094684;28;20028;-87
2022/04/04 07:02:59;;;;;;;34.88;10.05;;;;;;;;;;5110755;28;20031;-87
2022/04/04 07:05:25;;;;;;;34.72;9.35;;;;;;;;;;5113977;28;20051;-87
2022/04/04 07:07:53;;;;;;;35.33;9.68;;;;;;;;;;5114472;28;20513;-87
2022/04/04 07:10:19;;;;;;;29.38;8.43;;;;;;;;;;5106167;28;20050;-86
2022/04/04 07:12:47;;;;;;;30.70;9.43;;;;;;;;;;5114497;28;20109;-87
2022/04/04 07:15:14;;;;;;;27.85;9.85;;;;;;;;;;5100000;28;20035;-86
2022/04/04 07:17:41;;;;;;;35.30;8.48;;;;;;;;;;5106698;28;20028;-86
2022/04/04 07:20:12;;;;;;;35.05;9.38;;;;;;;;;;5094670;28;20034;-87
2022/04/04 07:22:39;;;;;;;37.33;9.38;;;;;;;;;;5106608;28;20039;-86
2022/04/04 07:25:09;;;;;;;31.15;9.38;;;;;;;;;;5093639;28;20046;-87
2022/04/04 07:27:40;;;;;;;27.17;7.65;;;;;;;;;;5100781;28;20418;-86
2022/04/04 07:30:07;;;;;;;25.70;7.75;;;;;;;;;;5096451;28;20128;-88
2022/04/04 07:32:36;;;;;;;36.55;8.82;;;;;;;;;;5093510;28;20486;-86
2022/04/04 07:35:06;;;;;;;28.08;8.07;;;;;;;;;;5100036;28;20091;-86
2022/04/04 07:37:32;;;;;;;27.83;8.07;;;;;;;;;;5112521;28;20705;-86
2022/04/04 07:40:10;;;;;;;25.38;8.30;;;;;;;;;;5115263;28;20034;-87
2022/04/04 07:42:37;;;;;;;32.70;8.45;;;;;;;;;;5113845;28;20054;-87
2022/04/04 07:45:04;;;;;;;37.58;8.35;;;;;;;;;;5101869;28;20036;-86
2022/04/04 07:47:30;;;;;;;25.80;7.68;;;;;;;;;;5098654;27;20487;-88
2022/04/04 07:49:58;;;;;;;28.75;7.80;;;;;;;;;;5108920;28;20398;-88
2022/04/04 07:52:26;;;;;;;29.77;7.80;;;;;;;;;;5115080;28;20036;-86
2022/04/04 07:54:56;;;;;;;23.48;7.40;;;;;;;;;;5105844;27;20038;-86
2022/04/04 07:57:23;;;;;;;31.17;8.85;;;;;;;;;;5115053;27;20394;-86
2022/04/04 07:59:52;;;;;;;35.53;7.95;;;;;;;;;;5116154;27;20027;-87
2022/04/04 08:02:19;;;;;;;34.22;7.97;;;;;;;;;;5104357;28;20034;-87
2022/04/04 08:04:47;;;;;;;28.35;7.88;;;;;;;;;;5111038;28;20501;-87
2022/04/04 08:07:15;;;;;;;28.05;8.32;;;;;;;;;;5096664;28;20062;-88
2022/04/04 08:09:41;;;;;;;28.50;7.93;;;;;;;;;;5111335;27;20051;-87
2022/04/04 08:12:14;;;;;;;25.30;7.80;;;;;;;;;;5114855;27;20065;-86
2022/04/04 08:14:40;;;;;;;29.27;8.32;;;;;;;;;;5131888;27;20123;-87
2022/04/04 08:17:14;;;;;;;29.42;8.10;;;;;;;;;;5101874;27;20063;-87
2022/04/04 08:19:40;;;;;;;25.23;7.55;;;;;;;;;;5105565;28;20114;-87
2022/04/04 08:22:12;;;;;;;34.53;7.70;;;;;;;;;;5132093;27;20031;-87
2022/04/04 08:24:40;;;;;;;26.80;8.18;;;;;;;;;;5109744;28;20383;-87
2022/04/04 08:27:07;;;;;;;28.80;7.38;;;;;;;;;;5111962;27;20031;-88
2022/04/04 08:29:33;;;;;;;33.38;9.38;;;;;;;;;;5107369;28;20035;-87
2022/04/04 08:32:00;;;;;;;31.88;9.02;;;;;;;;;;5107452;27;20118;-87
2022/04/04 08:34:27;;;;;;;31.55;8.90;;;;;;;;;;5096175;28;20039;-87
2022/04/04 08:36:56;;;;;;;27.70;8.57;;;;;;;;;;5105595;28;20478;-87
2022/04/04 08:39:22;;;;;;;31.42;9.35;;;;;;;;;;5116227;27;20027;-87
2022/04/04 08:41:49;;;;;;;34.05;8.45;;;;;;;;;;5116432;27;20504;-87
2022/04/04 08:44:18;;;;;;;35.88;8.93;;;;;;;;;;5112282;28;20043;-86
2022/04/04 08:46:45;;;;;;;28.77;8.57;;;;;;;;;;5106998;28;20088;-86
2022/04/04 08:49:12;;;;;;;24.10;9.43;;;;;;;;;;5097253;28;20059;-87
2022/04/04 08:51:42;;;;;;;37.05;9.77;;;;;;;;;;5104158;28;20035;-87
2022/04/04 08:54:08;;;;;;;28.80;8.73;;;;;;;;;;5106492;28;20043;-87
2022/04/04 08:56:34;;;;;;;30.23;9.20;;;;;;;;;;5106201;28;20115;-88
2022/04/04 08:59:01;;;;;;;42.58;10.60;;;;;;;;;;5100828;28;20060;-87
2022/04/04 09:01:28;;;;;;;35.20;9.68;;;;;;;;;;5098742;28;20028;-86
2022/04/04 09:04:04;;;;;;;32.92;9.02;;;;;;;;;;5104229;28;20089;-87
2022/04/04 09:06:30;;;;;;;33.90;8.95;;;;;;;;;;5109505;28;20055;-87
2022/04/04 09:08:57;;;;;;;40.22;10.68;;;;;;;;;;5112428;28;20065;-86
2022/04/04 09:11:24;;;;;;;31.98;9.52;;;;;;;;;;5097012;28;20036;-88
2022/04/04 09:14:04;;;;;;;24.50;9.00;;;;;;;;;;5113395;28;20032;-87
2022/04/04 09:16:30;;;;;;;30.83;9.60;;;;;;;;;;5112895;28;20046;-87
2022/04/04 09:18:59;;;;;;;30.20;8.77;;;;;;;;;;5096332;28;20106;-88
2022/04/04 09:21:25;;;;;;;33.33;11.23;;;;;;;;;;5102163;28;20040;-87
2022/04/04 09:23:54;;;;;;;23.27;8.68;;;;;;;;;;5108483;28;20042;-87
2022/04/04 09:26:32;;;;;;;28.17;10.55;;;;;;;;;;5112799;28;20035;-88
2022/04/04 09:29:00;;;;;;;26.67;8.95;;;;;;;;;;5109988;28;20118;-86
2022/04/04 09:31:26;;;;;;;30.00;9.77;;;;;;;;;;5098653;28;20428;-86
2022/04/04 09:33:57;;;;;;;34.03;9.85;;;;;;;;;;5112595;28;20566;-86
2022/04/04 09:36:23;;;;;;;33.10;9.98;;;;;;;;;;5105035;28;20115;-89
2022/04/04 09:39:02;;;;;;;30.45;8.38;;;;;;;;;;5106577;28;20024;-88
2022/04/04 09:41:28;;;;;;;29.10;9.02;;;;;;;;;;5111486;28;20111;-87
2022/04/04 09:43:57;;;;;;;32.28;8.93;;;;;;;;;;5110547;28;20092;-87
2022/04/04 09:46:24;;;;;;;30.85;9.00;;;;;;;;;;5099453;28;20028;-87
2022/04/04 09:49:04;;;;;;;28.92;9.77;;;;;;;;;;5105041;28;20552;-87
2022/04/04 09:51:34;;;;;;;31.23;9.40;;;;;;;;;;5105950;28;20130;-87
2022/04/04 09:54:04;;;;;;;31.83;8.82;;;;;;;;;;5100229;28;20122;-86
2022/04/04 09:56:30;;;;;;;24.27;8.63;;;;;;;;;;5106190;28;20031;-87
2022/04/04 09:59:04;;;;;;;26.27;8.07;;;;;;;;;;5104259;28;20035;-86
2022/04/04 10:01:31;;;;;;;32.35;9.88;;;;;;;;;;5106915;28;20029;-86
2022/04/04 10:04:01;;;;;;;33.80;9.65;;;;;;;;;;5107297;28;20114;-86
2022/04/04 10:06:29;;;;;;;33.30;8.15;;;;;;;;;;5110381;28;20067;-87
2022/04/04 10:08:57;;;;;;;31.55;8.38;;;;;;;;;;5098695;28;20042;-88
2022/04/04 10:11:24;;;;;;;27.13;8.40;;;;;;;;;;5102895;28;20046;-87
2022/04/04 10:13:52;;;;;;;35.22;9.00;;;;;;;;;;5111727;28;20062;-89
2022/04/04 10:16:19;;;;;;;31.23;8.45;;;;;;;;;;5110657;28;20374;-88
2022/04/04 10:18:56;;;;;;;27.08;8.90;;;;;;;;;;5105240;28;20513;-88
2022/04/04 10:21:25;;;;;;;22.67;7.60;;;;;;;;;;5112472;28;20030;-87
2022/04/04 10:23:53;;;;;;;28.92;8.60;;;;;;;;;;5108962;28;20036;-89
2022/04/04 10:26:22;;;;;;;28.40;7.65;;;;;;;;;;5106249;28;20036;-87
2022/04/04 10:28:48;;;;;;;34.08;8.23;;;;;;;;;;5110524;28;20040;-88
2022/04/04 10:31:39;;;;;;;31.17;7.80;;;;;;;;;;5113401;28;20864;-88
2022/04/04 10:34:11;;;;;;;21.50;8.10;;;;;;;;;;5113064;28;20067;-86
2022/04/04 10:36:54;;;;;;;31.40;7.13;;;;;;;;;;5115568;28;20432;-86
2022/04/04 10:39:41;;;;;;;20.92;6.57;;;;;;;;;;5106249;28;20032;-87
2022/04/04 10:42:48;;;;;;;29.02;9.65;;;;;;;;;;5112354;28;20390;-88
2022/04/04 10:45:24;;;;;;;34.95;8.88;;;;;;;;;;5075479;28;20032;-89
2022/04/04 10:48:02;;;;;;;30.80;8.55;;;;;;;;;;5109783;27;20023;-88
2022/04/04 10:50:33;;;;;;;34.28;8.45;;;;;;;;;;5131750;27;20393;-87
2022/04/04 10:53:05;;;;;;;28.40;9.30;;;;;;;;;;5107902;27;20039;-88
2022/04/04 10:55:37;;;;;;;35.72;10.43;;;;;;;;;;5101792;28;20088;-88
2022/04/04 10:58:21;;;;;;;25.40;8.43;;;;;;;;;;5133070;27;20419;-88
2022/04/04 11:00:55;;;;;;;30.83;9.20;;;;;;;;;;5135491;27;20035;-88
2022/04/04 11:03:28;;;;;;;27.63;7.30;;;;;;;;;;5114329;27;20119;-87
2022/04/04 11:09:12;;;;;;;24.10;8.15;;;;;;;;;;5129641;27;20542;-88
2022/04/04 11:12:24;;;;;;;37.67;8.20;;;;;;;;;;5107486;27;20039;-88
2022/04/04 11:15:07;;;;;;;27.55;8.43;;;;;;;;;;5118212;27;20124;-88
2022/04/04 11:17:56;;;;;;;30.13;8.20;;;;;;;;;;5112092;27;20024;-88
2022/04/04 11:20:33;;;;;;;29.33;8.10;;;;;;;;;;5103861;27;20024;-87
2022/04/04 11:23:03;;;;;;;28.92;8.50;;;;;;;;;;5118268;27;20054;-87
2022/04/04 11:25:34;;;;;;;27.90;8.15;;;;;;;;;;5117626;27;20023;-87
2022/04/04 11:28:06;;;;;;;28.52;8.35;;;;;;;;;;5112875;27;20087;-87
2022/04/04 11:30:33;;;;;;;26.00;8.40;;;;;;;;;;5114477;27;20055;-87
2022/04/04 11:33:00;;;;;;;32.55;9.80;;;;;;;;;;5100569;28;20483;-87
2022/04/04 11:35:27;;;;;;;25.35;9.07;;;;;;;;;;5094919;27;20046;-88
2022/04/04 11:38:01;;;;;;;28.17;9.00;;;;;;;;;;5110193;27;20027;-86
2022/04/04 11:40:37;;;;;;;32.90;9.05;;;;;;;;;;5106682;27;20180;-87
2022/04/04 11:43:05;;;;;;;32.35;9.60;;;;;;;;;;5106782;27;20038;-87
2022/04/04 11:45:35;;;;;;;38.45;9.93;;;;;;;;;;5121515;27;20062;-87
2022/04/04 11:48:06;;;;;;;49.58;10.05;;;;;;;;;;5102914;27;20051;-88
2022/04/04 11:50:37;;;;;;;43.42;9.50;;;;;;;;;;5102191;27;20148;-88
2022/04/04 11:53:10;;;;;;;35.90;9.23;;;;;;;;;;5097354;27;20039;-89
2022/04/04 11:55:38;;;;;;;33.58;9.38;;;;;;;;;;5102205;27;20050;-88
2022/04/04 11:58:10;;;;;;;26.48;10.10;;;;;;;;;;5108331;28;20387;-88
2022/04/04 12:00:38;;;;;;;31.17;9.48;;;;;;;;;;4754230;28;10000092;-88
2022/04/04 12:03:12;;;;;;;41.97;10.32;;;;;;;;;;5096650;28;20038;-87
2022/04/04 12:05:43;;;;;;;32.15;10.00;;;;;;;;;;5127935;27;20065;-88
2022/04/04 12:08:13;;;;;;;35.67;9.57;;;;;;;;;;5103413;27;20429;-87
2022/04/04 12:10:40;;;;;;;32.50;10.23;;;;;;;;;;5112601;27;20035;-87
2022/04/04 12:13:12;;;;;;;35.97;10.38;;;;;;;;;;5130422;27;20539;-89
2022/04/04 12:15:40;;;;;;;32.15;9.63;;;;;;;;;;5102229;27;20095;-89
2022/04/04 12:18:07;;;;;;;33.53;9.70;;;;;;;;;;5106993;27;20035;-88
2022/04/04 12:20:37;;;;;;;36.00;9.82;;;;;;;;;;5117453;27;20118;-88
2022/04/04 12:25:53;;;;;;;40.67;10.13;;;;;;;;;;5120746;27;20397;-92
2022/04/04 12:28:42;;;;;;;39.92;10.48;;;;;;;;;;5101403;28;20556;-93
2022/04/04 12:31:11;;;;;;;27.92;10.93;;;;;;;;;;5112301;27;20035;-90
2022/04/04 12:33:47;;;;;;;36.97;11.70;;;;;;;;;;5107493;27;20462;-90
2022/04/04 12:36:13;;;;;;;46.17;11.05;;;;;;;;;;5106116;27;20032;-91
2022/04/04 12:38:56;;;;;;;34.08;10.95;;;;;;;;;;5107126;27;20023;-92
2022/04/04 12:41:23;;;;;;;31.40;12.35;;;;;;;;;;5103916;27;20080;-91
2022/04/04 12:44:10;;;;;;;39.47;11.43;;;;;;;;;;5115656;27;20073;-92
2022/04/04 12:46:38;;;;;;;41.40;12.98;;;;;;;;;;5107679;27;20440;-89
2022/04/04 12:49:11;;;;;;;48.20;15.57;;;;;;;;;;5127549;27;20047;-90
2022/04/04 12:51:38;;;;;;;44.53;16.83;;;;;;;;;;5110262;28;20031;-90
2022/04/04 12:54:05;;;;;;;52.20;18.98;;;;;;;;;;5123056;27;20043;-89
2022/04/04 12:56:47;;;;;;;45.47;15.55;;;;;;;;;;5115892;27;20778;-89
2022/04/04 12:59:13;;;;;;;50.60;16.88;;;;;;;;;;5115786;28;20032;-89
2022/04/04 13:02:01;;;;;;;53.67;19.70;;;;;;;;;;5103697;27;20035;-89
2022/04/04 13:04:27;;;;;;;43.20;17.65;;;;;;;;;;5104493;27;20039;-90
2022/04/04 13:06:53;;;;;;;48.88;17.83;;;;;;;;;;5111533;27;20031;-90
2022/04/04 13:09:27;;;;;;;46.72;16.88;;;;;;;;;;5103339;28;20032;-91
2022/04/04 13:12:03;;;;;;;58.30;17.58;;;;;;;;;;5104061;28;20065;-89
2022/04/04 13:14:48;;;;;;;58.75;17.85;;;;;;;;;;5109114;27;20039;-92
2022/04/04 13:17:14;;;;;;;61.42;18.05;;;;;;;;;;5107477;28;20390;-91
2022/04/04 13:19:51;;;;;;;46.80;17.63;;;;;;;;;;5106171;28;20036;-91
2022/04/04 13:22:17;;;;;;;45.53;15.32;;;;;;;;;;5108593;28;20122;-93
2022/04/04 13:24:51;;;;;;;48.00;17.08;;;;;;;;;;5113583;28;20031;-90
2022/04/04 13:27:21;;;;;;;41.88;16.15;;;;;;;;;;5097339;28;20126;-90
2022/04/04 13:29:48;;;;;;;53.05;18.25;;;;;;;;;;5104766;28;20043;-91
2022/04/04 13:32:16;;;;;;;47.28;17.50;;;;;;;;;;5108051;28;20046;-91
2022/04/04 13:34:46;;;;;;;52.40;17.05;;;;;;;;;;5103776;28;20039;-92
2022/04/04 13:37:13;;;;;;;53.55;18.05;;;;;;;;;;5101571;28;20505;-90
2022/04/04 13:39:40;;;;;;;51.08;16.50;;;;;;;;;;5128501;28;20081;-91
2022/04/04 13:42:23;;;;;;;49.85;16.38;;;;;;;;;;5127110;28;20041;-92
2022/04/04 13:44:51;;;;;;;47.60;15.93;;;;;;;;;;5114537;28;20035;-91
2022/04/04 13:47:18;;;;;;;49.85;15.80;;;;;;;;;;5112579;28;20038;-91
2022/04/04 14:03:13;;;;;;;36.28;14.35;;;;;;;;;;5070736;28;20106;-91
2022/04/04 14:05:40;;;;;;;42.58;15.85;;;;;;;;;;5112339;28;20100;-91
2022/04/04 14:08:20;;;;;;;42.20;15.98;;;;;;;;;;5095758;28;20513;-91
2022/04/04 14:10:46;;;;;;;45.53;17.15;;;;;;;;;;5091837;28;20062;-92
2022/04/04 14:13:22;;;;;;;49.58;19.30;;;;;;;;;;5085198;28;20028;-91
2022/04/04 14:15:51;;;;;;;49.42;21.30;;;;;;;;;;5082780;28;20088;-90
2022/04/04 14:18:34;;;;;;;52.97;21.08;;;;;;;;;;5096871;28;20031;-90
2022/04/04 14:21:00;;;;;;;55.88;22.75;;;;;;;;;;5093129;28;20039;-91
2022/04/04 14:23:27;;;;;;;51.42;21.95;;;;;;;;;;5088429;28;20032;-89
2022/04/04 14:26:02;;;;;;;57.05;22.63;;;;;;;;;;5089523;28;20031;-89
2022/04/04 14:28:28;;;;;;;60.17;23.95;;;;;;;;;;5085298;28;20032;-91
2022/04/04 14:30:56;;;;;;;58.85;23.80;;;;;;;;;;5112893;28;20027;-91
2022/04/04 14:33:28;;;;;;;58.35;26.02;;;;;;;;;;5094404;28;20044;-90
2022/04/04 14:35:55;;;;;;;74.97;26.38;;;;;;;;;;5092661;28;20035;-89
2022/04/04 14:38:44;;;;;;;56.47;25.83;;;;;;;;;;5110776;28;20368;-89
2022/04/04 14:41:13;;;;;;;64.85;26.83;;;;;;;;;;5013591;28;20559;-90
2022/04/04 14:43:39;;;;;;;63.20;24.17;;;;;;;;;;5101893;28;20420;-89
2022/04/04 14:46:08;;;;;;;62.63;24.08;;;;;;;;;;5097810;28;20035;-89
2022/04/04 14:48:34;;;;;;;74.13;27.52;;;;;;;;;;5085071;28;20137;-89
2022/04/04 14:51:09;;;;;;;68.60;27.48;;;;;;;;;;5094458;28;20046;-89
2022/04/04 14:53:35;;;;;;;66.15;27.10;;;;;;;;;;5081977;28;20036;-89
2022/04/04 14:56:01;;;;;;;64.05;27.70;;;;;;;;;;5089831;28;20055;-88
2022/04/04 14:58:28;;;;;;;61.50;26.42;;;;;;;;;;5095162;28;20036;-89
2022/04/04 15:00:54;;;;;;;62.40;26.58;;;;;;;;;;5093577;28;20032;-89
2022/04/04 15:03:20;;;;;;;64.05;27.52;;;;;;;;;;5092309;28;20035;-88
2022/04/04 15:05:51;;;;;;;69.88;28.55;;;;;;;;;;5088838;28;20384;-88
2022/04/04 15:08:18;;;;;;;68.10;26.60;;;;;;;;;;5092736;28;20032;-88